createdAt,value
2022-11-27T00:01:28.037Z,40.70
2022-11-27T00:03:56.598Z,166.40
2022-11-27T00:06:26.344Z,67.90
2022-11-27T00:08:53.612Z,69.10
2022-11-27T00:11:23.490Z,156.23
2022-11-27T00:13:51.199Z,112.57
2022-11-27T00:16:19.199Z,228.63
2022-11-27T00:18:46.642Z,83.27
2022-11-27T00:21:25.360Z,386.10
2022-11-27T00:23:53.614Z,347.77
2022-11-27T00:26:21.541Z,793.50
2022-11-27T00:28:48.818Z,588.77
2022-11-27T00:31:18.648Z,130.97
2022-11-27T00:33:46.086Z,189.50
2022-11-27T00:36:14.334Z,245.40
2022-11-27T00:38:41.913Z,70.43
2022-11-27T00:41:10.880Z,59.87
2022-11-27T00:43:44.099Z,77.77
2022-11-27T00:46:16.631Z,80.87
2022-11-27T00:48:44.385Z,30.07
2022-11-27T00:51:14.353Z,133.00
2022-11-27T00:53:41.975Z,111.13
2022-11-27T00:56:09.427Z,61.33
2022-11-27T00:58:36.486Z,711.60
2022-11-27T01:01:06.279Z,243.07
2022-11-27T01:03:34.994Z,731.83
2022-11-27T01:06:06.719Z,389.17
2022-11-27T01:08:34.861Z,581.33
2022-11-27T01:11:02.361Z,286.67
2022-11-27T01:13:32.366Z,133.50
2022-11-27T01:16:07.511Z,437.13
2022-11-27T01:18:36.116Z,393.67
2022-11-27T01:21:03.950Z,904.17
2022-11-27T01:23:31.356Z,393.87
2022-11-27T01:26:04.364Z,441.10
2022-11-27T01:28:31.559Z,603.60
2022-11-27T01:30:59.040Z,612.33
2022-11-27T01:33:26.184Z,467.23
2022-11-27T01:36:02.063Z,774.73
2022-11-27T01:38:30.865Z,837.43
2022-11-27T01:41:06.157Z,571.23
2022-11-27T01:43:57.115Z,64.23
2022-11-27T01:46:45.694Z,93.30
2022-11-27T01:49:34.018Z,69.40
2022-11-27T01:52:20.898Z,69.33
2022-11-27T01:55:02.591Z,49.10
2022-11-27T01:57:36.119Z,53.70
2022-11-27T02:00:11.303Z,71.30
2022-11-27T02:02:43.527Z,138.57
2022-11-27T02:05:14.760Z,68.30
2022-11-27T02:07:41.962Z,39.03
2022-11-27T02:10:09.676Z,118.67
2022-11-27T02:13:09.602Z,52.30
2022-11-27T02:16:32.369Z,56.37
2022-11-27T02:19:32.607Z,76.40
2022-11-27T02:23:04.034Z,144.20
2022-11-27T02:32:07.401Z,170.07
2022-11-27T02:34:46.391Z,131.33
2022-11-27T02:37:42.770Z,152.50
2022-11-27T02:43:33.521Z,255.63
2022-11-27T02:46:03.192Z,167.17
2022-11-27T02:48:45.485Z,646.67
2022-11-27T02:51:15.032Z,284.33
2022-11-27T02:53:49.883Z,539.23
2022-11-27T02:56:20.432Z,187.80
2022-11-27T02:58:48.354Z,63.40
2022-11-27T03:01:18.220Z,289.67
2022-11-27T03:03:51.251Z,322.93
2022-11-27T03:06:26.716Z,110.90
2022-11-27T03:09:28.034Z,92.33
2022-11-27T03:11:56.560Z,280.63
2022-11-27T03:14:24.965Z,204.10
2022-11-27T03:17:19.382Z,75.53
2022-11-27T03:19:54.147Z,94.03
2022-11-27T03:22:21.225Z,95.23
2022-11-27T03:24:50.021Z,109.57
2022-11-27T03:27:25.963Z,136.63
2022-11-27T03:29:56.682Z,336.83
2022-11-27T03:32:25.692Z,129.63
2022-11-27T03:34:53.057Z,139.97
2022-11-27T03:37:20.477Z,70.17
2022-11-27T03:39:47.550Z,252.27
2022-11-27T03:42:46.183Z,326.20
2022-11-27T03:45:52.419Z,537.50
2022-11-27T03:48:52.734Z,921.67
2022-11-27T03:51:37.105Z,1010.23
2022-11-27T03:54:45.049Z,178.70
2022-11-27T03:57:33.396Z,489.27
2022-11-27T04:00:04.923Z,287.13
2022-11-27T04:02:42.012Z,157.07
2022-11-27T04:05:09.744Z,162.83
2022-11-27T04:07:37.000Z,171.73
2022-11-27T04:10:05.521Z,601.13
2022-11-27T04:12:32.566Z,316.80
2022-11-27T04:14:59.574Z,258.23
2022-11-27T04:17:26.780Z,203.23
2022-11-27T04:19:53.855Z,222.40
2022-11-27T04:22:20.927Z,808.50
2022-11-27T04:24:48.025Z,206.70
2022-11-27T04:27:15.187Z,266.77
2022-11-27T04:29:42.268Z,210.93
2022-11-27T04:32:09.444Z,86.30
2022-11-27T04:34:36.474Z,67.03
2022-11-27T04:37:03.571Z,72.00
2022-11-27T04:39:30.966Z,74.40
2022-11-27T04:41:58.010Z,58.10
2022-11-27T04:44:25.123Z,60.83
2022-11-27T04:46:52.197Z,64.13
2022-11-27T04:49:19.262Z,80.50
2022-11-27T04:51:46.292Z,94.07
2022-11-27T04:54:13.336Z,128.23
2022-11-27T04:56:40.469Z,92.43
2022-11-27T04:59:07.571Z,138.20
2022-11-27T05:01:34.879Z,90.37
2022-11-27T05:04:01.974Z,107.70
2022-11-27T05:06:29.069Z,96.70
2022-11-27T05:09:00.323Z,90.43
2022-11-27T05:11:27.577Z,94.20
2022-11-27T05:14:14.704Z,107.43
2022-11-27T05:16:46.155Z,80.80
2022-11-27T05:19:14.987Z,77.53
2022-11-27T05:21:42.805Z,59.67
2022-11-27T05:24:10.702Z,55.33
2022-11-27T05:26:38.962Z,76.90
2022-11-27T05:29:06.701Z,58.07
2022-11-27T05:31:34.039Z,55.63
2022-11-27T05:34:01.931Z,45.07
2022-11-27T05:36:29.485Z,73.27
2022-11-27T05:38:56.498Z,49.53
2022-11-27T05:41:23.614Z,64.30
2022-11-27T05:43:50.708Z,55.73
2022-11-27T05:46:20.891Z,62.93
2022-11-27T05:48:48.394Z,56.20
2022-11-27T05:51:16.643Z,53.07
2022-11-27T05:53:43.802Z,46.60
2022-11-27T05:56:14.129Z,56.10
2022-11-27T05:58:42.227Z,56.03
2022-11-27T06:01:10.817Z,55.27
2022-11-27T06:03:39.289Z,57.67
2022-11-27T06:06:08.342Z,58.80
2022-11-27T06:08:37.753Z,71.33
2022-11-27T06:11:16.583Z,56.23
2022-11-27T06:13:44.081Z,51.77
2022-11-27T06:16:17.967Z,63.87
2022-11-27T06:18:45.512Z,62.47
2022-11-27T06:21:14.913Z,61.40
2022-11-27T06:23:43.075Z,61.47
2022-11-27T06:26:16.906Z,74.83
2022-11-27T06:28:44.659Z,69.47
2022-11-27T06:31:18.022Z,63.17
2022-11-27T06:33:46.697Z,57.87
2022-11-27T06:36:13.765Z,68.20
2022-11-27T06:38:41.259Z,46.53
2022-11-27T06:41:14.294Z,59.13
2022-11-27T06:43:41.371Z,59.80
2022-11-27T06:46:12.773Z,59.30
2022-11-27T06:48:39.906Z,48.10
2022-11-27T06:51:08.398Z,51.37
2022-11-27T06:53:37.551Z,45.23
2022-11-27T06:56:06.187Z,56.70
2022-11-27T06:58:33.287Z,52.57
2022-11-27T07:01:01.555Z,54.47
2022-11-27T07:03:29.063Z,53.60
2022-11-27T07:05:59.397Z,42.87
2022-11-27T07:08:26.562Z,41.83
2022-11-27T07:10:53.660Z,38.40
2022-11-27T07:13:20.751Z,38.03
2022-11-27T07:15:47.804Z,44.30
2022-11-27T07:18:14.803Z,36.97
2022-11-27T07:20:41.950Z,35.67
2022-11-27T07:23:08.944Z,30.00
2022-11-27T07:25:38.087Z,34.63
2022-11-27T07:28:05.096Z,30.10
2022-11-27T07:30:32.106Z,31.93
2022-11-27T07:32:59.211Z,37.70
2022-11-27T07:35:26.307Z,40.43
2022-11-27T07:37:53.322Z,34.13
2022-11-27T07:40:20.477Z,35.80
2022-11-27T07:42:47.582Z,35.57
2022-11-27T07:45:17.578Z,39.27
2022-11-27T07:47:44.656Z,37.67
2022-11-27T07:50:12.588Z,40.00
2022-11-27T07:52:42.185Z,34.13
2022-11-27T07:55:09.733Z,32.37
2022-11-27T07:57:37.013Z,34.77
2022-11-27T08:00:05.136Z,37.47
2022-11-27T08:02:32.151Z,32.20
2022-11-27T08:04:59.260Z,26.30
2022-11-27T08:07:29.614Z,27.90
2022-11-27T08:10:00.407Z,25.00
2022-11-27T08:12:27.549Z,25.33
2022-11-27T08:14:54.566Z,29.27
2022-11-27T08:17:21.655Z,27.80
2022-11-27T08:19:48.699Z,27.40
2022-11-27T08:22:19.590Z,26.97
2022-11-27T08:24:48.283Z,30.80
2022-11-27T08:27:16.510Z,29.03
2022-11-27T08:29:44.011Z,31.10
2022-11-27T08:32:11.695Z,25.40
2022-11-27T08:34:39.228Z,24.67
2022-11-27T08:37:07.351Z,26.00
2022-11-27T08:39:34.368Z,30.10
2022-11-27T08:42:01.528Z,23.50
2022-11-27T08:44:28.506Z,24.87
2022-11-27T08:46:55.562Z,25.17
2022-11-27T08:49:22.836Z,25.93
2022-11-27T08:51:49.906Z,23.73
2022-11-27T08:54:17.033Z,24.67
2022-11-27T08:56:44.033Z,19.93
2022-11-27T08:59:11.491Z,22.90
2022-11-27T09:01:38.645Z,21.63
2022-11-27T09:04:05.789Z,21.80
2022-11-27T09:06:37.117Z,25.37
2022-11-27T09:09:05.801Z,24.50
2022-11-27T09:11:34.286Z,23.23
2022-11-27T09:14:02.583Z,21.37
2022-11-27T09:16:30.924Z,25.23
2022-11-27T09:18:58.552Z,22.17
2022-11-27T09:21:33.320Z,20.20
2022-11-27T09:24:01.697Z,20.37
2022-11-27T09:26:29.556Z,23.83
2022-11-27T09:28:58.656Z,19.53
2022-11-27T09:31:26.390Z,18.93
2022-11-27T09:33:53.937Z,18.50
2022-11-27T09:36:23.385Z,22.63
2022-11-27T09:38:50.723Z,25.50
2022-11-27T09:41:52.871Z,19.57
2022-11-27T09:44:45.493Z,18.53
2022-11-27T09:47:26.851Z,21.17
2022-11-27T09:50:00.403Z,19.73
2022-11-27T09:52:41.844Z,18.97
2022-11-27T09:55:37.859Z,19.27
2022-11-27T09:58:19.124Z,18.13
2022-11-27T10:00:47.008Z,17.93
2022-11-27T10:03:17.006Z,17.73
2022-11-27T10:06:28.714Z,20.70
2022-11-27T10:09:46.490Z,17.20
2022-11-27T10:12:55.208Z,19.83
2022-11-27T10:15:48.833Z,17.20
2022-11-27T10:18:34.713Z,18.00
2022-11-27T10:21:22.026Z,16.43
2022-11-27T10:24:10.345Z,21.13
2022-11-27T10:26:48.565Z,19.13
2022-11-27T10:29:50.277Z,17.03
2022-11-27T10:32:54.804Z,17.17
2022-11-27T10:35:24.360Z,17.27
2022-11-27T10:38:21.872Z,17.80
2022-11-27T10:41:49.181Z,17.30
2022-11-27T10:44:27.228Z,16.63
2022-11-27T10:47:01.681Z,15.33
2022-11-27T10:49:28.876Z,17.63
2022-11-27T10:51:55.873Z,15.50
2022-11-27T10:54:34.572Z,16.07
2022-11-27T10:57:40.299Z,16.67
2022-11-27T11:00:20.901Z,15.90
2022-11-27T11:02:48.092Z,17.07
2022-11-27T11:06:11.758Z,21.53
2022-11-27T11:08:18.951Z,19.27
2022-11-27T11:11:03.625Z,17.33
2022-11-27T11:13:33.650Z,18.10
2022-11-27T11:16:05.556Z,20.20
2022-11-27T11:18:34.933Z,21.77
2022-11-27T11:21:05.074Z,18.87
2022-11-27T11:23:38.442Z,18.97
2022-11-27T11:26:38.159Z,20.20
2022-11-27T11:29:17.876Z,21.87
2022-11-27T11:31:45.256Z,18.87
2022-11-27T11:34:28.936Z,16.57
2022-11-27T11:37:08.031Z,17.80
2022-11-27T11:39:47.683Z,17.40
2022-11-27T11:42:23.497Z,17.83
2022-11-27T11:44:56.424Z,17.57
2022-11-27T11:47:25.329Z,15.40
2022-11-27T11:49:53.832Z,16.10
2022-11-27T11:52:48.519Z,16.17
2022-11-27T11:55:25.780Z,14.77
2022-11-27T11:58:23.332Z,14.57
2022-11-27T12:01:25.515Z,17.43
2022-11-27T12:04:20.008Z,14.63
2022-11-27T12:07:21.441Z,17.63
2022-11-27T12:10:52.854Z,16.43
2022-11-27T12:13:59.741Z,14.70
2022-11-27T12:17:07.271Z,13.13
2022-11-27T12:20:13.798Z,13.93
2022-11-27T12:23:28.728Z,12.37
2022-11-27T12:26:34.132Z,16.90
2022-11-27T12:29:31.005Z,18.07
2022-11-27T12:32:32.415Z,16.27
2022-11-27T12:56:50.586Z,14.83
2022-11-27T12:59:43.674Z,13.53
2022-11-27T13:05:48.054Z,15.33
2022-11-27T13:11:28.426Z,17.60
2022-11-27T13:14:03.401Z,16.00
2022-11-27T13:16:45.962Z,15.57
2022-11-27T13:19:49.955Z,15.97
2022-11-27T13:22:27.573Z,20.13
2022-11-27T13:25:01.704Z,19.50
2022-11-27T13:27:32.845Z,17.70
2022-11-27T13:30:04.240Z,16.50
2022-11-27T13:32:40.337Z,16.87
2022-11-27T13:35:20.504Z,16.13
2022-11-27T13:37:50.043Z,14.63
2022-11-27T13:40:22.163Z,27.00
2022-11-27T13:42:55.821Z,23.13
2022-11-27T13:45:36.609Z,20.40
2022-11-27T13:48:38.783Z,20.67
2022-11-27T13:51:08.348Z,24.00
2022-11-27T13:53:40.826Z,19.30
2022-11-27T13:56:09.163Z,31.63
2022-11-27T13:58:41.497Z,26.60
2022-11-27T14:01:20.496Z,27.80
2022-11-27T14:03:48.130Z,24.47
2022-11-27T14:06:30.675Z,23.67
2022-11-27T14:09:04.159Z,23.50
2022-11-27T14:11:46.889Z,27.37
2022-11-27T14:14:23.011Z,25.67
2022-11-27T14:17:04.811Z,23.77
2022-11-27T14:19:40.046Z,23.57
2022-11-27T14:23:07.087Z,26.90
2022-11-27T14:25:31.208Z,29.40
2022-11-27T14:28:21.971Z,27.97
2022-11-27T14:30:52.954Z,25.90
2022-11-27T14:33:23.904Z,25.00
2022-11-27T14:35:54.286Z,25.80
2022-11-27T14:38:22.404Z,22.20
2022-11-27T14:40:53.270Z,26.03
2022-11-27T14:43:26.356Z,24.63
2022-11-27T14:45:58.934Z,23.80
2022-11-27T14:48:28.926Z,25.67
2022-11-27T14:50:56.847Z,25.27
2022-11-27T14:53:27.043Z,26.23
2022-11-27T14:55:57.588Z,22.90
2022-11-27T14:58:29.996Z,24.80
2022-11-27T15:01:07.094Z,22.83
2022-11-27T15:03:34.661Z,21.57
2022-11-27T15:06:07.308Z,25.63
2022-11-27T15:08:36.568Z,22.87
2022-11-27T15:11:05.587Z,22.13
2022-11-27T15:13:37.923Z,23.90
2022-11-27T15:16:14.142Z,21.70
2022-11-27T15:18:43.012Z,24.43
2022-11-27T15:21:12.614Z,21.13
2022-11-27T15:23:45.869Z,26.70
2022-11-27T15:26:26.004Z,23.40
2022-11-27T15:28:54.146Z,23.57
2022-11-27T15:31:53.243Z,23.87
2022-11-27T15:34:23.584Z,26.70
2022-11-27T15:37:06.398Z,24.60
2022-11-27T15:39:49.604Z,27.23
2022-11-27T15:42:17.726Z,27.13
2022-11-27T15:44:46.131Z,24.70
2022-11-27T15:47:35.243Z,25.67
2022-11-27T15:50:02.302Z,28.97
2022-11-27T15:52:29.540Z,26.83
2022-11-27T15:54:56.776Z,27.03
2022-11-27T15:57:24.530Z,23.93
2022-11-27T15:59:51.993Z,24.47
2022-11-27T16:02:19.485Z,24.40
2022-11-27T16:04:46.939Z,25.38
2022-11-27T16:07:14.317Z,30.50
2022-11-27T16:09:41.627Z,26.00
2022-11-27T16:12:09.027Z,27.20
2022-11-27T16:14:36.279Z,27.83
2022-11-27T16:17:03.398Z,25.50
2022-11-27T16:19:30.443Z,25.80
2022-11-27T16:21:57.456Z,29.30
2022-11-27T16:24:24.844Z,23.97
2022-11-27T16:26:51.863Z,27.30
2022-11-27T16:29:18.977Z,24.87
2022-11-27T16:31:47.038Z,28.13
2022-11-27T16:34:16.539Z,24.00
2022-11-27T16:36:43.955Z,27.17
2022-11-27T16:39:12.335Z,27.30
2022-11-27T16:41:40.028Z,26.27
2022-11-27T16:44:13.312Z,25.40
2022-11-27T16:46:41.580Z,25.43
2022-11-27T16:49:09.129Z,27.10
2022-11-27T16:51:38.306Z,24.57
2022-11-27T16:54:09.586Z,22.80
2022-11-27T16:56:38.513Z,24.03
2022-11-27T16:59:10.711Z,26.00
2022-11-27T17:01:38.835Z,26.50
2022-11-27T17:04:09.040Z,28.13
2022-11-27T17:06:38.315Z,29.03
2022-11-27T17:09:07.631Z,27.97
2022-11-27T17:11:36.648Z,25.73
2022-11-27T17:14:06.762Z,29.73
2022-11-27T17:16:38.785Z,25.70
2022-11-27T17:19:05.932Z,26.73
2022-11-27T17:21:34.915Z,26.93
2022-11-27T17:24:11.594Z,25.67
2022-11-27T17:26:43.750Z,26.07
2022-11-27T17:29:12.201Z,31.90
2022-11-27T17:31:39.973Z,31.13
2022-11-27T17:34:08.447Z,28.90
2022-11-27T17:36:37.503Z,28.33
2022-11-27T17:39:06.862Z,30.27
2022-11-27T17:41:35.030Z,30.07
2022-11-27T17:44:05.791Z,30.03
2022-11-27T17:46:33.698Z,27.77
2022-11-27T17:49:05.014Z,28.60
2022-11-27T17:51:35.706Z,27.07
2022-11-27T17:54:04.040Z,24.57
2022-11-27T17:56:33.492Z,26.23
2022-11-27T17:59:01.045Z,24.80
2022-11-27T18:01:30.263Z,23.87
2022-11-27T18:04:04.241Z,23.17
2022-11-27T18:06:32.473Z,26.10
2022-11-27T18:09:00.191Z,28.20
2022-11-27T18:11:30.339Z,27.70
2022-11-27T18:14:00.886Z,25.07
2022-11-27T18:16:32.644Z,29.97
2022-11-27T18:19:02.309Z,28.83
2022-11-27T18:21:29.412Z,28.07
2022-11-27T18:29:31.259Z,30.50
2022-11-27T18:31:58.422Z,30.27
2022-11-27T18:34:25.539Z,26.17
2022-11-27T18:36:57.319Z,28.97
2022-11-27T18:39:24.474Z,28.80
2022-11-27T18:41:51.980Z,29.57
2022-11-27T18:44:19.195Z,29.70
2022-11-27T18:46:46.253Z,28.80
2022-11-27T18:49:13.423Z,31.73
2022-11-27T18:51:40.790Z,28.73
2022-11-27T18:54:08.547Z,33.40
2022-11-27T18:56:37.247Z,35.63
2022-11-27T18:59:06.036Z,30.83
2022-11-27T19:01:41.366Z,33.70
2022-11-27T19:04:13.232Z,34.10
2022-11-27T19:06:42.413Z,31.33
2022-11-27T19:09:12.583Z,34.43
2022-11-27T19:11:40.468Z,34.80
2022-11-27T19:14:08.748Z,29.47
2022-11-27T19:16:43.965Z,30.30
2022-11-27T19:19:52.336Z,30.83
2022-11-27T19:22:01.270Z,29.90
2022-11-27T19:24:28.562Z,26.67
2022-11-27T19:26:58.045Z,29.60
2022-11-27T19:29:25.213Z,28.63
2022-11-27T19:31:55.139Z,29.57
2022-11-27T19:34:22.891Z,25.00
2022-11-27T19:36:50.211Z,25.90
2022-11-27T19:39:17.413Z,25.67
2022-11-27T19:41:44.548Z,27.83
2022-11-27T19:44:13.382Z,27.10
2022-11-27T19:46:41.289Z,26.07
2022-11-27T19:49:15.515Z,26.57
2022-11-27T19:51:42.839Z,23.93
2022-11-27T19:54:13.288Z,26.87
2022-11-27T19:56:42.596Z,27.37
2022-11-27T19:59:12.293Z,26.23
2022-11-27T20:01:41.804Z,24.03
2022-11-27T20:04:11.666Z,23.37
2022-11-27T20:06:39.201Z,23.73
2022-11-27T20:09:06.978Z,32.13
2022-11-27T20:11:35.686Z,28.67
2022-11-27T20:14:05.780Z,25.70
2022-11-27T20:16:35.215Z,20.60
2022-11-27T20:19:05.649Z,29.50
2022-11-27T20:21:34.938Z,23.00
2022-11-27T20:24:04.436Z,23.60
2022-11-27T20:26:37.143Z,23.33
2022-11-27T20:29:08.359Z,23.40
2022-11-27T20:31:37.983Z,21.67
2022-11-27T20:34:06.177Z,21.33
2022-11-27T20:36:35.367Z,22.00
2022-11-27T20:39:02.801Z,21.07
2022-11-27T20:41:30.604Z,23.70
2022-11-27T20:44:00.636Z,22.60
2022-11-27T20:46:29.724Z,24.57
2022-11-27T20:48:57.250Z,25.23
2022-11-27T20:51:28.696Z,26.53
2022-11-27T20:53:57.863Z,22.93
2022-11-27T20:56:25.821Z,26.30
2022-11-27T20:58:53.944Z,24.60
2022-11-27T21:01:29.803Z,26.57
2022-11-27T21:03:58.763Z,23.07
2022-11-27T21:06:29.780Z,24.37
2022-11-27T21:08:59.717Z,28.83
2022-11-27T21:11:29.808Z,29.60
2022-11-27T21:14:09.791Z,24.37
2022-11-27T21:16:42.102Z,27.07
2022-11-27T21:19:18.119Z,25.17
2022-11-27T21:21:45.289Z,24.33
2022-11-27T21:24:13.340Z,26.70
2022-11-27T21:26:41.667Z,21.87
2022-11-27T21:29:10.156Z,21.83
2022-11-27T21:31:38.476Z,23.67
2022-11-27T21:34:09.145Z,24.83
2022-11-27T21:36:38.089Z,25.30
2022-11-27T21:39:11.155Z,23.47
2022-11-27T21:41:38.506Z,22.73
2022-11-27T21:44:06.057Z,25.83
2022-11-27T21:46:33.943Z,25.20
2022-11-27T21:49:04.972Z,26.57
2022-11-27T21:51:32.587Z,26.17
2022-11-27T21:54:07.575Z,31.00
2022-11-27T21:56:37.915Z,24.77
2022-11-27T21:59:06.724Z,23.40
2022-11-27T22:01:33.952Z,26.20
2022-11-27T22:04:01.176Z,23.33
2022-11-27T22:06:31.048Z,22.93
2022-11-27T22:08:59.133Z,26.37
2022-11-27T22:11:30.456Z,23.73
2022-11-27T22:14:06.401Z,26.57
2022-11-27T22:16:40.000Z,28.30
2022-11-27T22:19:11.933Z,26.30
2022-11-27T22:21:39.190Z,31.40
2022-11-27T22:24:10.978Z,28.93
2022-11-27T22:26:40.756Z,25.27
2022-11-27T22:29:07.831Z,29.80
2022-11-27T22:31:35.012Z,27.60
2022-11-27T22:34:04.107Z,25.83
2022-11-27T22:36:34.983Z,25.63
2022-11-27T22:39:05.562Z,25.80
2022-11-27T22:41:36.678Z,27.20
2022-11-27T22:44:08.945Z,27.70
2022-11-27T22:46:39.478Z,25.93
2022-11-27T22:49:07.508Z,25.70
2022-11-27T22:51:36.609Z,26.77
2022-11-27T22:54:06.692Z,27.67
2022-11-27T22:56:34.216Z,26.10
2022-11-27T22:59:30.483Z,20.43
2022-11-27T23:01:49.407Z,25.60
2022-11-27T23:04:17.239Z,22.63
2022-11-27T23:06:48.233Z,28.93
2022-11-27T23:09:18.151Z,25.53
2022-11-27T23:11:45.524Z,26.80
2022-11-27T23:14:13.143Z,23.47
2022-11-27T23:16:40.589Z,22.70
2022-11-27T23:19:07.743Z,24.93
2022-11-27T23:21:37.705Z,25.63
2022-11-27T23:24:06.593Z,29.37
2022-11-27T23:26:34.339Z,25.87
2022-11-27T23:29:01.694Z,26.80
2022-11-27T23:31:34.337Z,27.77
2022-11-27T23:34:05.169Z,23.70
2022-11-27T23:36:33.101Z,26.70
2022-11-27T23:39:01.862Z,35.53
2022-11-27T23:41:31.399Z,30.87
2022-11-27T23:43:59.279Z,28.87
2022-11-27T23:46:29.188Z,30.00
2022-11-27T23:48:58.413Z,29.27
2022-11-27T23:51:28.580Z,28.00
2022-11-27T23:53:56.248Z,24.80
2022-11-27T23:56:25.989Z,27.60
2022-11-27T23:58:55.069Z,29.90
